sensor_id;sensor_type;location;lat;lon;timestamp;P1;durP1;ratioP1;P2;durP2;ratioP2
6374;SDS011;35400;45.472;-122.822;2023-03-13T00:01:02;2.67;;;1.97;;
6374;SDS011;35400;45.472;-122.822;2023-03-13T00:03:40;2.60;;;1.87;;
6374;SDS011;35400;45.472;-122.822;2023-03-13T00:06:08;1.63;;;1.53;;
6374;SDS011;35400;45.472;-122.822;2023-03-13T00:08:35;2.93;;;1.60;;
6374;SDS011;35400;45.472;-122.822;2023-03-13T00:11:06;3.27;;;2.10;;
6374;SDS011;35400;45.472;-122.822;2023-03-13T00:13:35;2.73;;;1.80;;
6374;SDS011;35400;45.472;-122.822;2023-03-13T00:16:03;2.90;;;2.00;;
6374;SDS011;35400;45.472;-122.822;2023-03-13T00:18:32;2.30;;;1.73;;
6374;SDS011;35400;45.472;-122.822;2023-03-13T00:21:08;2.90;;;2.30;;
6374;SDS011;35400;45.472;-122.822;2023-03-13T00:23:36;2.40;;;1.90;;
6374;SDS011;35400;45.472;-122.822;2023-03-13T00:26:04;2.00;;;1.73;;
6374;SDS011;35400;45.472;-122.822;2023-03-13T00:28:33;2.27;;;2.07;;
6374;SDS011;35400;45.472;-122.822;2023-03-13T00:31:05;3.20;;;1.87;;
6374;SDS011;35400;45.472;-122.822;2023-03-13T00:33:35;2.67;;;2.17;;
6374;SDS011;35400;45.472;-122.822;2023-03-13T00:36:04;3.40;;;2.57;;
6374;SDS011;35400;45.472;-122.822;2023-03-13T00:38:33;2.33;;;2.13;;
6374;SDS011;35400;45.472;-122.822;2023-03-13T00:41:04;3.13;;;2.70;;
6374;SDS011;35400;45.472;-122.822;2023-03-13T00:43:33;3.53;;;2.83;;
6374;SDS011;35400;45.472;-122.822;2023-03-13T00:46:00;3.27;;;2.37;;
6374;SDS011;35400;45.472;-122.822;2023-03-13T00:48:28;2.63;;;2.13;;
6374;SDS011;35400;45.472;-122.822;2023-03-13T00:50:54;2.77;;;2.30;;
6374;SDS011;35400;45.472;-122.822;2023-03-13T00:53:21;3.27;;;2.97;;
6374;SDS011;35400;45.472;-122.822;2023-03-13T00:58:20;3.00;;;2.73;;
6374;SDS011;35400;45.472;-122.822;2023-03-13T01:00:47;3.27;;;2.97;;
6374;SDS011;35400;45.472;-122.822;2023-03-13T01:03:15;4.00;;;3.50;;
6374;SDS011;35400;45.472;-122.822;2023-03-13T01:05:43;4.60;;;3.77;;
6374;SDS011;35400;45.472;-122.822;2023-03-13T01:08:10;3.90;;;3.60;;
6374;SDS011;35400;45.472;-122.822;2023-03-13T01:10:37;3.90;;;3.30;;
6374;SDS011;35400;45.472;-122.822;2023-03-13T01:13:04;4.53;;;3.67;;
6374;SDS011;35400;45.472;-122.822;2023-03-13T01:15:35;5.27;;;4.00;;
6374;SDS011;35400;45.472;-122.822;2023-03-13T01:18:02;3.33;;;3.03;;
6374;SDS011;35400;45.472;-122.822;2023-03-13T01:20:29;4.20;;;3.83;;
6374;SDS011;35400;45.472;-122.822;2023-03-13T01:22:56;5.17;;;4.40;;
6374;SDS011;35400;45.472;-122.822;2023-03-13T01:25:23;4.73;;;3.50;;
6374;SDS011;35400;45.472;-122.822;2023-03-13T01:27:51;4.27;;;3.87;;
6374;SDS011;35400;45.472;-122.822;2023-03-13T01:30:17;4.97;;;4.10;;
6374;SDS011;35400;45.472;-122.822;2023-03-13T01:32:44;4.20;;;3.80;;
6374;SDS011;35400;45.472;-122.822;2023-03-13T01:35:11;5.13;;;3.73;;
6374;SDS011;35400;45.472;-122.822;2023-03-13T01:37:39;4.20;;;3.80;;
6374;SDS011;35400;45.472;-122.822;2023-03-13T01:40:06;4.80;;;4.37;;
6374;SDS011;35400;45.472;-122.822;2023-03-13T01:42:54;4.30;;;3.90;;
6374;SDS011;35400;45.472;-122.822;2023-03-13T01:48:34;7.40;;;4.27;;
6374;SDS011;35400;45.472;-122.822;2023-03-13T01:56:57;4.83;;;4.33;;
6374;SDS011;35400;45.472;-122.822;2023-03-13T01:59:47;5.93;;;4.67;;
6374;SDS011;35400;45.472;-122.822;2023-03-13T02:02:21;6.40;;;5.40;;
6374;SDS011;35400;45.472;-122.822;2023-03-13T02:04:51;7.67;;;5.30;;
6374;SDS011;35400;45.472;-122.822;2023-03-13T02:07:24;5.73;;;5.23;;
6374;SDS011;35400;45.472;-122.822;2023-03-13T02:10:02;5.20;;;4.73;;
6374;SDS011;35400;45.472;-122.822;2023-03-13T02:12:31;5.40;;;4.90;;
6374;SDS011;35400;45.472;-122.822;2023-03-13T02:15:07;4.87;;;4.27;;
6374;SDS011;35400;45.472;-122.822;2023-03-13T02:17:42;5.33;;;4.50;;
6374;SDS011;35400;45.472;-122.822;2023-03-13T02:20:10;6.53;;;5.03;;
6374;SDS011;35400;45.472;-122.822;2023-03-13T02:28:00;4.80;;;4.40;;
6374;SDS011;35400;45.472;-122.822;2023-03-13T02:30:33;5.80;;;4.63;;
6374;SDS011;35400;45.472;-122.822;2023-03-13T02:33:02;5.50;;;4.93;;
6374;SDS011;35400;45.472;-122.822;2023-03-13T02:35:29;5.20;;;4.70;;
6374;SDS011;35400;45.472;-122.822;2023-03-13T02:38:01;5.07;;;4.57;;
6374;SDS011;35400;45.472;-122.822;2023-03-13T02:40:37;6.07;;;5.57;;
6374;SDS011;35400;45.472;-122.822;2023-03-13T02:43:10;6.43;;;5.67;;
6374;SDS011;35400;45.472;-122.822;2023-03-13T02:45:59;6.80;;;6.10;;
6374;SDS011;35400;45.472;-122.822;2023-03-13T02:48:44;5.90;;;5.30;;
6374;SDS011;35400;45.472;-122.822;2023-03-13T02:51:27;7.00;;;6.13;;
6374;SDS011;35400;45.472;-122.822;2023-03-13T02:53:59;6.37;;;5.77;;
6374;SDS011;35400;45.472;-122.822;2023-03-13T02:56:32;7.50;;;6.33;;
6374;SDS011;35400;45.472;-122.822;2023-03-13T02:59:03;7.13;;;6.43;;
6374;SDS011;35400;45.472;-122.822;2023-03-13T03:01:30;6.13;;;5.53;;
6374;SDS011;35400;45.472;-122.822;2023-03-13T03:03:57;6.93;;;6.07;;
6374;SDS011;35400;45.472;-122.822;2023-03-13T03:06:24;6.83;;;6.13;;
6374;SDS011;35400;45.472;-122.822;2023-03-13T03:08:53;6.67;;;5.50;;
6374;SDS011;35400;45.472;-122.822;2023-03-13T03:11:20;7.43;;;5.37;;
6374;SDS011;35400;45.472;-122.822;2023-03-13T03:13:51;7.00;;;5.93;;
6374;SDS011;35400;45.472;-122.822;2023-03-13T03:16:19;6.63;;;5.70;;
6374;SDS011;35400;45.472;-122.822;2023-03-13T03:18:46;6.77;;;5.83;;
6374;SDS011;35400;45.472;-122.822;2023-03-13T03:21:13;7.23;;;6.60;;
6374;SDS011;35400;45.472;-122.822;2023-03-13T03:23:40;7.47;;;6.77;;
6374;SDS011;35400;45.472;-122.822;2023-03-13T03:26:08;7.33;;;6.50;;
6374;SDS011;35400;45.472;-122.822;2023-03-13T03:28:35;7.43;;;6.13;;
6374;SDS011;35400;45.472;-122.822;2023-03-13T03:31:07;8.83;;;6.83;;
6374;SDS011;35400;45.472;-122.822;2023-03-13T03:33:37;7.07;;;6.37;;
6374;SDS011;35400;45.472;-122.822;2023-03-13T03:36:09;10.73;;;6.50;;
6374;SDS011;35400;45.472;-122.822;2023-03-13T03:38:38;6.47;;;5.80;;
6374;SDS011;35400;45.472;-122.822;2023-03-13T03:41:07;6.90;;;6.20;;
6374;SDS011;35400;45.472;-122.822;2023-03-13T03:43:35;8.73;;;6.53;;
6374;SDS011;35400;45.472;-122.822;2023-03-13T03:46:05;6.77;;;5.97;;
6374;SDS011;35400;45.472;-122.822;2023-03-13T03:48:32;6.67;;;6.07;;
6374;SDS011;35400;45.472;-122.822;2023-03-13T03:51:01;7.07;;;6.30;;
6374;SDS011;35400;45.472;-122.822;2023-03-13T03:53:30;11.70;;;6.23;;
6374;SDS011;35400;45.472;-122.822;2023-03-13T03:55:57;7.40;;;6.70;;
6374;SDS011;35400;45.472;-122.822;2023-03-13T03:58:24;7.10;;;6.40;;
6374;SDS011;35400;45.472;-122.822;2023-03-13T04:01:04;8.63;;;6.20;;
6374;SDS011;35400;45.472;-122.822;2023-03-13T04:03:31;8.53;;;7.60;;
6374;SDS011;35400;45.472;-122.822;2023-03-13T04:05:59;8.07;;;6.83;;
6374;SDS011;35400;45.472;-122.822;2023-03-13T04:08:25;8.23;;;6.83;;
6374;SDS011;35400;45.472;-122.822;2023-03-13T04:10:52;10.77;;;8.57;;
6374;SDS011;35400;45.472;-122.822;2023-03-13T04:13:22;11.43;;;9.30;;
6374;SDS011;35400;45.472;-122.822;2023-03-13T04:15:49;11.73;;;9.10;;
6374;SDS011;35400;45.472;-122.822;2023-03-13T04:18:16;10.37;;;8.23;;
6374;SDS011;35400;45.472;-122.822;2023-03-13T04:20:44;14.80;;;8.93;;
6374;SDS011;35400;45.472;-122.822;2023-03-13T04:23:11;11.33;;;9.47;;
6374;SDS011;35400;45.472;-122.822;2023-03-13T04:25:38;10.97;;;8.57;;
6374;SDS011;35400;45.472;-122.822;2023-03-13T04:28:08;12.13;;;8.23;;
6374;SDS011;35400;45.472;-122.822;2023-03-13T04:30:40;9.57;;;7.37;;
6374;SDS011;35400;45.472;-122.822;2023-03-13T04:33:32;5.93;;;5.10;;
6374;SDS011;35400;45.472;-122.822;2023-03-13T04:36:16;6.67;;;6.07;;
6374;SDS011;35400;45.472;-122.822;2023-03-13T04:39:10;5.07;;;4.13;;
6374;SDS011;35400;45.472;-122.822;2023-03-13T04:41:56;7.23;;;5.77;;
6374;SDS011;35400;45.472;-122.822;2023-03-13T04:44:33;6.20;;;4.87;;
6374;SDS011;35400;45.472;-122.822;2023-03-13T04:47:23;6.13;;;4.90;;
6374;SDS011;35400;45.472;-122.822;2023-03-13T04:50:10;5.43;;;4.50;;
6374;SDS011;35400;45.472;-122.822;2023-03-13T04:53:03;4.83;;;4.30;;
6374;SDS011;35400;45.472;-122.822;2023-03-13T04:55:40;4.83;;;4.33;;
6374;SDS011;35400;45.472;-122.822;2023-03-13T04:58:26;5.47;;;4.30;;
6374;SDS011;35400;45.472;-122.822;2023-03-13T05:01:07;5.00;;;4.40;;
6374;SDS011;35400;45.472;-122.822;2023-03-13T05:03:51;4.33;;;3.93;;
6374;SDS011;35400;45.472;-122.822;2023-03-13T05:06:38;3.83;;;3.43;;
6374;SDS011;35400;45.472;-122.822;2023-03-13T05:09:30;4.27;;;3.40;;
6374;SDS011;35400;45.472;-122.822;2023-03-13T05:12:09;3.70;;;2.90;;
6374;SDS011;35400;45.472;-122.822;2023-03-13T05:14:57;4.27;;;3.20;;
6374;SDS011;35400;45.472;-122.822;2023-03-13T05:17:44;2.53;;;2.33;;
6374;SDS011;35400;45.472;-122.822;2023-03-13T05:20:30;3.50;;;2.63;;
6374;SDS011;35400;45.472;-122.822;2023-03-13T05:23:19;4.77;;;2.63;;
6374;SDS011;35400;45.472;-122.822;2023-03-13T05:26:08;2.53;;;2.13;;
6374;SDS011;35400;45.472;-122.822;2023-03-13T05:28:54;3.43;;;2.17;;
6374;SDS011;35400;45.472;-122.822;2023-03-13T05:31:33;1.93;;;1.80;;
6374;SDS011;35400;45.472;-122.822;2023-03-13T05:34:00;1.73;;;1.63;;
6374;SDS011;35400;45.472;-122.822;2023-03-13T05:36:40;2.60;;;1.60;;
6374;SDS011;35400;45.472;-122.822;2023-03-13T05:39:45;2.13;;;1.90;;
6374;SDS011;35400;45.472;-122.822;2023-03-13T05:42:24;3.07;;;2.00;;
6374;SDS011;35400;45.472;-122.822;2023-03-13T05:44:59;2.97;;;2.23;;
6374;SDS011;35400;45.472;-122.822;2023-03-13T05:47:31;2.73;;;1.90;;
6374;SDS011;35400;45.472;-122.822;2023-03-13T05:50:36;3.03;;;1.90;;
6374;SDS011;35400;45.472;-122.822;2023-03-13T05:53:22;2.50;;;1.70;;
6374;SDS011;35400;45.472;-122.822;2023-03-13T05:56:02;1.60;;;1.50;;
6374;SDS011;35400;45.472;-122.822;2023-03-13T05:59:02;1.80;;;1.30;;
6374;SDS011;35400;45.472;-122.822;2023-03-13T06:01:47;2.07;;;1.87;;
6374;SDS011;35400;45.472;-122.822;2023-03-13T06:04:23;1.67;;;1.20;;
6374;SDS011;35400;45.472;-122.822;2023-03-13T06:06:51;1.27;;;1.17;;
6374;SDS011;35400;45.472;-122.822;2023-03-13T06:09:18;1.20;;;1.10;;
6374;SDS011;35400;45.472;-122.822;2023-03-13T06:11:45;1.03;;;1.00;;
6374;SDS011;35400;45.472;-122.822;2023-03-13T06:14:12;0.90;;;0.90;;
6374;SDS011;35400;45.472;-122.822;2023-03-13T06:16:45;0.90;;;0.67;;
6374;SDS011;35400;45.472;-122.822;2023-03-13T06:19:18;0.93;;;0.70;;
6374;SDS011;35400;45.472;-122.822;2023-03-13T06:21:45;0.97;;;0.70;;
6374;SDS011;35400;45.472;-122.822;2023-03-13T06:24:12;1.53;;;0.50;;
6374;SDS011;35400;45.472;-122.822;2023-03-13T06:26:39;1.73;;;0.60;;
6374;SDS011;35400;45.472;-122.822;2023-03-13T06:29:06;0.70;;;0.70;;
6374;SDS011;35400;45.472;-122.822;2023-03-13T06:31:33;0.60;;;0.60;;
6374;SDS011;35400;45.472;-122.822;2023-03-13T06:33:59;0.70;;;0.60;;
6374;SDS011;35400;45.472;-122.822;2023-03-13T06:36:26;0.80;;;0.80;;
6374;SDS011;35400;45.472;-122.822;2023-03-13T06:38:53;1.13;;;0.97;;
6374;SDS011;35400;45.472;-122.822;2023-03-13T06:41:20;1.70;;;1.10;;
6374;SDS011;35400;45.472;-122.822;2023-03-13T06:43:47;1.47;;;1.37;;
6374;SDS011;35400;45.472;-122.822;2023-03-13T06:46:18;1.00;;;1.00;;
6374;SDS011;35400;45.472;-122.822;2023-03-13T06:48:47;1.20;;;1.10;;
6374;SDS011;35400;45.472;-122.822;2023-03-13T06:51:16;1.57;;;1.47;;
6374;SDS011;35400;45.472;-122.822;2023-03-13T06:53:44;2.03;;;1.30;;
6374;SDS011;35400;45.472;-122.822;2023-03-13T06:56:11;1.10;;;1.10;;
6374;SDS011;35400;45.472;-122.822;2023-03-13T06:58:39;2.10;;;1.50;;
6374;SDS011;35400;45.472;-122.822;2023-03-13T07:03:38;2.37;;;2.10;;
6374;SDS011;35400;45.472;-122.822;2023-03-13T07:06:09;2.33;;;2.03;;
6374;SDS011;35400;45.472;-122.822;2023-03-13T07:08:37;1.53;;;1.43;;
6374;SDS011;35400;45.472;-122.822;2023-03-13T07:11:05;3.07;;;1.67;;
6374;SDS011;35400;45.472;-122.822;2023-03-13T07:13:34;1.53;;;1.43;;
6374;SDS011;35400;45.472;-122.822;2023-03-13T07:16:02;1.93;;;1.50;;
6374;SDS011;35400;45.472;-122.822;2023-03-13T07:18:31;2.20;;;1.57;;
6374;SDS011;35400;45.472;-122.822;2023-03-13T07:20:59;2.03;;;1.60;;
6374;SDS011;35400;45.472;-122.822;2023-03-13T07:23:30;2.10;;;1.43;;
6374;SDS011;35400;45.472;-122.822;2023-03-13T07:25:58;2.23;;;1.40;;
6374;SDS011;35400;45.472;-122.822;2023-03-13T07:28:36;1.40;;;1.30;;
6374;SDS011;35400;45.472;-122.822;2023-03-13T07:31:04;2.90;;;1.60;;
6374;SDS011;35400;45.472;-122.822;2023-03-13T07:33:33;2.37;;;1.40;;
6374;SDS011;35400;45.472;-122.822;2023-03-13T07:36:00;1.43;;;1.20;;
6374;SDS011;35400;45.472;-122.822;2023-03-13T07:38:27;1.87;;;1.00;;
6374;SDS011;35400;45.472;-122.822;2023-03-13T07:40:54;1.33;;;1.23;;
6374;SDS011;35400;45.472;-122.822;2023-03-13T07:43:22;1.20;;;1.10;;
6374;SDS011;35400;45.472;-122.822;2023-03-13T07:45:54;1.50;;;1.03;;
6374;SDS011;35400;45.472;-122.822;2023-03-13T07:48:33;1.47;;;1.37;;
6374;SDS011;35400;45.472;-122.822;2023-03-13T07:51:01;1.17;;;1.10;;
6374;SDS011;35400;45.472;-122.822;2023-03-13T07:53:29;1.20;;;1.10;;
6374;SDS011;35400;45.472;-122.822;2023-03-13T07:55:58;1.87;;;1.17;;
6374;SDS011;35400;45.472;-122.822;2023-03-13T07:58:28;1.23;;;1.13;;
6374;SDS011;35400;45.472;-122.822;2023-03-13T08:00:57;1.80;;;1.10;;
6374;SDS011;35400;45.472;-122.822;2023-03-13T08:03:24;3.33;;;1.20;;
6374;SDS011;35400;45.472;-122.822;2023-03-13T08:06:12;2.53;;;1.43;;
6374;SDS011;35400;45.472;-122.822;2023-03-13T08:08:41;1.50;;;1.40;;
6374;SDS011;35400;45.472;-122.822;2023-03-13T08:11:10;1.67;;;1.30;;
6374;SDS011;35400;45.472;-122.822;2023-03-13T08:13:39;1.40;;;1.30;;
6374;SDS011;35400;45.472;-122.822;2023-03-13T08:16:16;1.60;;;1.50;;
6374;SDS011;35400;45.472;-122.822;2023-03-13T08:19:02;3.13;;;2.00;;
6374;SDS011;35400;45.472;-122.822;2023-03-13T08:21:31;2.43;;;1.70;;
6374;SDS011;35400;45.472;-122.822;2023-03-13T08:24:03;2.63;;;1.97;;
6374;SDS011;35400;45.472;-122.822;2023-03-13T08:26:32;3.20;;;1.93;;
6374;SDS011;35400;45.472;-122.822;2023-03-13T08:29:01;2.23;;;1.97;;
6374;SDS011;35400;45.472;-122.822;2023-03-13T08:31:37;2.23;;;2.03;;
6374;SDS011;35400;45.472;-122.822;2023-03-13T08:34:14;2.73;;;2.30;;
6374;SDS011;35400;45.472;-122.822;2023-03-13T08:36:42;2.57;;;2.37;;
6374;SDS011;35400;45.472;-122.822;2023-03-13T08:39:13;2.40;;;2.20;;
6374;SDS011;35400;45.472;-122.822;2023-03-13T08:41:41;3.43;;;2.40;;
6374;SDS011;35400;45.472;-122.822;2023-03-13T08:44:09;2.50;;;2.20;;
6374;SDS011;35400;45.472;-122.822;2023-03-13T08:46:38;3.30;;;1.87;;
6374;SDS011;35400;45.472;-122.822;2023-03-13T08:49:06;2.30;;;2.10;;
6374;SDS011;35400;45.472;-122.822;2023-03-13T08:51:34;3.43;;;1.90;;
6374;SDS011;35400;45.472;-122.822;2023-03-13T08:54:01;4.00;;;1.73;;
6374;SDS011;35400;45.472;-122.822;2023-03-13T08:56:29;1.70;;;1.60;;
6374;SDS011;35400;45.472;-122.822;2023-03-13T08:58:58;2.30;;;1.53;;
6374;SDS011;35400;45.472;-122.822;2023-03-13T09:01:30;1.60;;;1.50;;
6374;SDS011;35400;45.472;-122.822;2023-03-13T09:03:58;3.13;;;1.20;;
6374;SDS011;35400;45.472;-122.822;2023-03-13T09:06:25;2.60;;;1.67;;
6374;SDS011;35400;45.472;-122.822;2023-03-13T09:08:54;1.27;;;1.17;;
6374;SDS011;35400;45.472;-122.822;2023-03-13T09:11:22;1.37;;;1.10;;
6374;SDS011;35400;45.472;-122.822;2023-03-13T09:13:50;3.20;;;1.17;;
6374;SDS011;35400;45.472;-122.822;2023-03-13T09:16:21;1.90;;;1.33;;
6374;SDS011;35400;45.472;-122.822;2023-03-13T09:18:49;1.50;;;1.10;;
6374;SDS011;35400;45.472;-122.822;2023-03-13T09:21:18;1.83;;;1.60;;
6374;SDS011;35400;45.472;-122.822;2023-03-13T09:23:47;1.57;;;1.47;;
6374;SDS011;35400;45.472;-122.822;2023-03-13T09:26:14;1.20;;;1.10;;
6374;SDS011;35400;45.472;-122.822;2023-03-13T09:28:42;1.20;;;1.10;;
6374;SDS011;35400;45.472;-122.822;2023-03-13T09:31:13;2.23;;;1.50;;
6374;SDS011;35400;45.472;-122.822;2023-03-13T09:33:42;2.30;;;1.30;;
6374;SDS011;35400;45.472;-122.822;2023-03-13T09:36:10;1.90;;;1.10;;
6374;SDS011;35400;45.472;-122.822;2023-03-13T09:38:38;1.07;;;1.07;;
6374;SDS011;35400;45.472;-122.822;2023-03-13T09:43:45;1.00;;;1.00;;
6374;SDS011;35400;45.472;-122.822;2023-03-13T09:46:24;1.20;;;1.10;;
6374;SDS011;35400;45.472;-122.822;2023-03-13T09:49:21;1.40;;;0.80;;
6374;SDS011;35400;45.472;-122.822;2023-03-13T09:51:57;1.00;;;0.90;;
6374;SDS011;35400;45.472;-122.822;2023-03-13T09:54:40;2.30;;;0.90;;
6374;SDS011;35400;45.472;-122.822;2023-03-13T09:57:24;1.87;;;0.97;;
6374;SDS011;35400;45.472;-122.822;2023-03-13T10:00:04;1.10;;;0.70;;
6374;SDS011;35400;45.472;-122.822;2023-03-13T10:02:38;1.67;;;0.60;;
6374;SDS011;35400;45.472;-122.822;2023-03-13T10:05:15;0.70;;;0.70;;
6374;SDS011;35400;45.472;-122.822;2023-03-13T10:07:47;0.80;;;0.60;;
6374;SDS011;35400;45.472;-122.822;2023-03-13T10:10:20;0.87;;;0.67;;
6374;SDS011;35400;45.472;-122.822;2023-03-13T10:13:00;0.60;;;0.60;;
6374;SDS011;35400;45.472;-122.822;2023-03-13T10:15:45;0.57;;;0.57;;
6374;SDS011;35400;45.472;-122.822;2023-03-13T10:18:24;0.50;;;0.50;;
6374;SDS011;35400;45.472;-122.822;2023-03-13T10:20:58;1.10;;;0.60;;
6374;SDS011;35400;45.472;-122.822;2023-03-13T10:26:08;0.70;;;0.60;;
6374;SDS011;35400;45.472;-122.822;2023-03-13T10:28:43;0.60;;;0.50;;
6374;SDS011;35400;45.472;-122.822;2023-03-13T10:31:16;0.40;;;0.40;;
6374;SDS011;35400;45.472;-122.822;2023-03-13T10:34:08;2.63;;;0.53;;
6374;SDS011;35400;45.472;-122.822;2023-03-13T10:36:44;1.13;;;0.47;;
6374;SDS011;35400;45.472;-122.822;2023-03-13T10:39:16;1.33;;;0.30;;
6374;SDS011;35400;45.472;-122.822;2023-03-13T10:41:47;0.50;;;0.50;;
6374;SDS011;35400;45.472;-122.822;2023-03-13T10:44:19;0.87;;;0.60;;
6374;SDS011;35400;45.472;-122.822;2023-03-13T10:46:48;0.93;;;0.50;;
6374;SDS011;35400;45.472;-122.822;2023-03-13T10:49:16;1.43;;;0.77;;
6374;SDS011;35400;45.472;-122.822;2023-03-13T10:51:48;0.50;;;0.50;;
6374;SDS011;35400;45.472;-122.822;2023-03-13T10:59:53;1.37;;;0.50;;
6374;SDS011;35400;45.472;-122.822;2023-03-13T11:02:36;0.50;;;0.50;;
6374;SDS011;35400;45.472;-122.822;2023-03-13T11:05:28;0.40;;;0.40;;
6374;SDS011;35400;45.472;-122.822;2023-03-13T11:07:55;1.93;;;0.63;;
6374;SDS011;35400;45.472;-122.822;2023-03-13T11:10:26;1.80;;;0.40;;
6374;SDS011;35400;45.472;-122.822;2023-03-13T11:12:55;2.10;;;0.50;;
6374;SDS011;35400;45.472;-122.822;2023-03-13T11:15:41;0.60;;;0.57;;
6374;SDS011;35400;45.472;-122.822;2023-03-13T11:20:53;0.37;;;0.37;;
6374;SDS011;35400;45.472;-122.822;2023-03-13T11:23:57;0.50;;;0.50;;
6374;SDS011;35400;45.472;-122.822;2023-03-13T11:26:49;1.87;;;0.60;;
6374;SDS011;35400;45.472;-122.822;2023-03-13T11:36:00;1.80;;;0.60;;
6374;SDS011;35400;45.472;-122.822;2023-03-13T11:51:05;0.40;;;0.40;;
6374;SDS011;35400;45.472;-122.822;2023-03-13T12:01:46;1.10;;;0.43;;
6374;SDS011;35400;45.472;-122.822;2023-03-13T12:04:25;0.43;;;0.43;;
6374;SDS011;35400;45.472;-122.822;2023-03-13T12:13:33;1.03;;;0.40;;
6374;SDS011;35400;45.472;-122.822;2023-03-13T12:15:43;1.43;;;0.40;;
6374;SDS011;35400;45.472;-122.822;2023-03-13T12:18:30;0.40;;;0.40;;
6374;SDS011;35400;45.472;-122.822;2023-03-13T12:21:03;0.47;;;0.40;;
6374;SDS011;35400;45.472;-122.822;2023-03-13T12:26:18;0.67;;;0.30;;
6374;SDS011;35400;45.472;-122.822;2023-03-13T12:34:24;0.50;;;0.40;;
6374;SDS011;35400;45.472;-122.822;2023-03-13T12:45:26;0.73;;;0.30;;
6374;SDS011;35400;45.472;-122.822;2023-03-13T12:56:56;0.57;;;0.50;;
6374;SDS011;35400;45.472;-122.822;2023-03-13T12:59:42;0.30;;;0.20;;
6374;SDS011;35400;45.472;-122.822;2023-03-13T13:02:23;0.80;;;0.20;;
6374;SDS011;35400;45.472;-122.822;2023-03-13T13:04:53;0.20;;;0.20;;
6374;SDS011;35400;45.472;-122.822;2023-03-13T13:07:24;0.40;;;0.30;;
6374;SDS011;35400;45.472;-122.822;2023-03-13T13:12:39;0.20;;;0.20;;
6374;SDS011;35400;45.472;-122.822;2023-03-13T13:20:31;0.30;;;0.30;;
6374;SDS011;35400;45.472;-122.822;2023-03-13T13:36:56;0.30;;;0.30;;
6374;SDS011;35400;45.472;-122.822;2023-03-13T13:45:03;0.30;;;0.30;;
6374;SDS011;35400;45.472;-122.822;2023-03-13T13:47:47;0.30;;;0.20;;
6374;SDS011;35400;45.472;-122.822;2023-03-13T13:52:53;0.57;;;0.40;;
6374;SDS011;35400;45.472;-122.822;2023-03-13T13:55:55;0.20;;;0.20;;
6374;SDS011;35400;45.472;-122.822;2023-03-13T13:58:26;0.23;;;0.23;;
6374;SDS011;35400;45.472;-122.822;2023-03-13T14:01:03;0.63;;;0.30;;
6374;SDS011;35400;45.472;-122.822;2023-03-13T14:03:37;0.83;;;0.60;;
6374;SDS011;35400;45.472;-122.822;2023-03-13T14:06:27;0.20;;;0.20;;
6374;SDS011;35400;45.472;-122.822;2023-03-13T14:09:01;0.30;;;0.30;;
6374;SDS011;35400;45.472;-122.822;2023-03-13T14:11:57;0.30;;;0.20;;
6374;SDS011;35400;45.472;-122.822;2023-03-13T14:14:24;0.20;;;0.20;;
6374;SDS011;35400;45.472;-122.822;2023-03-13T14:16:52;0.20;;;0.20;;
6374;SDS011;35400;45.472;-122.822;2023-03-13T14:19:34;0.30;;;0.30;;
6374;SDS011;35400;45.472;-122.822;2023-03-13T14:22:07;0.57;;;0.30;;
6374;SDS011;35400;45.472;-122.822;2023-03-13T14:24:36;0.30;;;0.30;;
6374;SDS011;35400;45.472;-122.822;2023-03-13T14:27:41;0.30;;;0.30;;
6374;SDS011;35400;45.472;-122.822;2023-03-13T14:30:15;0.73;;;0.20;;
6374;SDS011;35400;45.472;-122.822;2023-03-13T14:32:44;1.70;;;0.20;;
6374;SDS011;35400;45.472;-122.822;2023-03-13T14:35:13;0.20;;;0.20;;
6374;SDS011;35400;45.472;-122.822;2023-03-13T14:37:42;0.57;;;0.20;;
6374;SDS011;35400;45.472;-122.822;2023-03-13T14:42:51;0.20;;;0.20;;
6374;SDS011;35400;45.472;-122.822;2023-03-13T14:45:29;0.20;;;0.20;;
6374;SDS011;35400;45.472;-122.822;2023-03-13T14:48:02;0.20;;;0.20;;
6374;SDS011;35400;45.472;-122.822;2023-03-13T14:50:42;2.00;;;0.30;;
6374;SDS011;35400;45.472;-122.822;2023-03-13T14:53:21;0.30;;;0.30;;
6374;SDS011;35400;45.472;-122.822;2023-03-13T14:56:07;0.47;;;0.47;;
6374;SDS011;35400;45.472;-122.822;2023-03-13T14:58:39;1.03;;;0.50;;
6374;SDS011;35400;45.472;-122.822;2023-03-13T15:01:13;0.50;;;0.50;;
6374;SDS011;35400;45.472;-122.822;2023-03-13T15:03:51;0.47;;;0.47;;
6374;SDS011;35400;45.472;-122.822;2023-03-13T15:06:19;0.63;;;0.30;;
6374;SDS011;35400;45.472;-122.822;2023-03-13T15:11:51;0.30;;;0.30;;
6374;SDS011;35400;45.472;-122.822;2023-03-13T15:14:34;0.67;;;0.60;;
6374;SDS011;35400;45.472;-122.822;2023-03-13T15:17:19;0.30;;;0.30;;
6374;SDS011;35400;45.472;-122.822;2023-03-13T15:19:52;0.53;;;0.33;;
6374;SDS011;35400;45.472;-122.822;2023-03-13T15:22:26;0.30;;;0.30;;
6374;SDS011;35400;45.472;-122.822;2023-03-13T15:24:54;0.80;;;0.30;;
6374;SDS011;35400;45.472;-122.822;2023-03-13T15:27:22;0.33;;;0.30;;
6374;SDS011;35400;45.472;-122.822;2023-03-13T15:29:51;0.20;;;0.20;;
6374;SDS011;35400;45.472;-122.822;2023-03-13T15:32:22;0.40;;;0.40;;
6374;SDS011;35400;45.472;-122.822;2023-03-13T15:35:00;0.20;;;0.20;;
6374;SDS011;35400;45.472;-122.822;2023-03-13T15:37:28;0.33;;;0.33;;
6374;SDS011;35400;45.472;-122.822;2023-03-13T15:39:56;0.67;;;0.40;;
6374;SDS011;35400;45.472;-122.822;2023-03-13T15:42:23;0.10;;;0.10;;
6374;SDS011;35400;45.472;-122.822;2023-03-13T15:44:50;0.30;;;0.30;;
6374;SDS011;35400;45.472;-122.822;2023-03-13T15:47:18;0.47;;;0.30;;
6374;SDS011;35400;45.472;-122.822;2023-03-13T15:49:46;0.37;;;0.37;;
6374;SDS011;35400;45.472;-122.822;2023-03-13T15:52:14;0.40;;;0.30;;
6374;SDS011;35400;45.472;-122.822;2023-03-13T15:54:44;1.00;;;0.30;;
6374;SDS011;35400;45.472;-122.822;2023-03-13T15:57:21;0.30;;;0.30;;
6374;SDS011;35400;45.472;-122.822;2023-03-13T15:59:51;0.53;;;0.53;;
6374;SDS011;35400;45.472;-122.822;2023-03-13T16:02:19;0.60;;;0.40;;
6374;SDS011;35400;45.472;-122.822;2023-03-13T16:04:49;0.73;;;0.40;;
6374;SDS011;35400;45.472;-122.822;2023-03-13T16:07:19;0.60;;;0.50;;
6374;SDS011;35400;45.472;-122.822;2023-03-13T16:09:47;0.77;;;0.73;;
6374;SDS011;35400;45.472;-122.822;2023-03-13T16:12:14;2.17;;;0.40;;
6374;SDS011;35400;45.472;-122.822;2023-03-13T16:14:41;0.40;;;0.40;;
6374;SDS011;35400;45.472;-122.822;2023-03-13T16:17:14;0.43;;;0.40;;
6374;SDS011;35400;45.472;-122.822;2023-03-13T16:19:43;2.27;;;0.80;;
6374;SDS011;35400;45.472;-122.822;2023-03-13T16:22:11;0.50;;;0.50;;
6374;SDS011;35400;45.472;-122.822;2023-03-13T16:24:38;0.50;;;0.30;;
6374;SDS011;35400;45.472;-122.822;2023-03-13T16:27:12;0.60;;;0.50;;
6374;SDS011;35400;45.472;-122.822;2023-03-13T16:29:44;2.50;;;0.30;;
6374;SDS011;35400;45.472;-122.822;2023-03-13T16:32:14;0.23;;;0.23;;
6374;SDS011;35400;45.472;-122.822;2023-03-13T16:34:43;0.60;;;0.40;;
6374;SDS011;35400;45.472;-122.822;2023-03-13T16:37:14;0.40;;;0.30;;
6374;SDS011;35400;45.472;-122.822;2023-03-13T16:39:43;0.57;;;0.50;;
6374;SDS011;35400;45.472;-122.822;2023-03-13T16:42:11;0.50;;;0.30;;
6374;SDS011;35400;45.472;-122.822;2023-03-13T16:44:38;3.20;;;0.40;;
6374;SDS011;35400;45.472;-122.822;2023-03-13T16:50:23;0.40;;;0.40;;
6374;SDS011;35400;45.472;-122.822;2023-03-13T16:52:53;0.30;;;0.30;;
6374;SDS011;35400;45.472;-122.822;2023-03-13T16:55:21;1.00;;;0.70;;
6374;SDS011;35400;45.472;-122.822;2023-03-13T16:57:55;0.50;;;0.40;;
6374;SDS011;35400;45.472;-122.822;2023-03-13T17:00:23;0.63;;;0.57;;
6374;SDS011;35400;45.472;-122.822;2023-03-13T17:02:52;0.90;;;0.90;;
6374;SDS011;35400;45.472;-122.822;2023-03-13T17:05:21;0.80;;;0.60;;